RYR10XW LERS-EHEH
Flight info
| Callsign | RYR10XW |
|---|---|
| Flight time | 1h 43m |
| Altitude | 30000 |
| Route | ARBEK T113 RUTIP DCT OKABI/N0432F360 DCT TOU DCT ADABI DCT BOKNO UN858 VANAD UN874 ARSAF DCT EGOZE DCT CMB DCT VEKIN DCT ADUTO N873 FERDI Y18 DENUT |
| Aircraft | B738/M-SDE2E3FGHIRWXY/LB1 |
Departure
| Time | 2026-04-27 22:59 |
|---|---|
| Airport | Reus Airport (LERS) |
Arrival
| Time | 2026-04-28 00:42 |
|---|---|
| Airport | Eindhoven Airport (EHEH) |
| Time | Latitude | Longitude | Altitude | Speed | Heading |
|---|---|---|---|---|---|
| 2026-04-27 22:46 | 41.14665 | 1.15560 | 241 ft | 0 kts | 339° |
| 2026-04-27 22:52 | 41.14656 | 1.15565 | 242 ft | 4 kts | 338° |
| 2026-04-27 22:52 | 41.14632 | 1.15579 | 242 ft | 4 kts | 333° |
| 2026-04-27 22:52 | 41.14608 | 1.15597 | 242 ft | 4 kts | 325° |
| 2026-04-27 22:52 | 41.14590 | 1.15616 | 242 ft | 1 kts | 316° |
| 2026-04-27 22:53 | 41.14586 | 1.15620 | 242 ft | 0 kts | 316° |
| 2026-04-27 22:55 | 41.14587 | 1.15613 | 242 ft | 2 kts | 281° |
| 2026-04-27 22:55 | 41.14572 | 1.15574 | 242 ft | 6 kts | 216° |
| 2026-04-27 22:55 | 41.14530 | 1.15572 | 242 ft | 6 kts | 161° |
| 2026-04-27 22:55 | 41.14521 | 1.15577 | 242 ft | 0 kts | 159° |
| 2026-04-27 22:57 | 41.14518 | 1.15578 | 242 ft | 2 kts | 159° |
| 2026-04-27 22:57 | 41.14470 | 1.15603 | 242 ft | 12 kts | 159° |
| 2026-04-27 22:58 | 41.14431 | 1.15661 | 242 ft | 7 kts | 69° |
| 2026-04-27 22:58 | 41.14507 | 1.15926 | 242 ft | 71 kts | 68° |
| 2026-04-27 22:58 | 41.14787 | 1.16875 | 243 ft | 147 kts | 68° |
| 2026-04-27 22:58 | 41.15207 | 1.18310 | 752 ft | 169 kts | 69° |
| 2026-04-27 22:59 | 41.15612 | 1.19729 | 1870 ft | 165 kts | 69° |
| 2026-04-27 22:59 | 41.16046 | 1.21222 | 2523 ft | 190 kts | 70° |
| 2026-04-27 22:59 | 41.16568 | 1.23012 | 2837 ft | 224 kts | 70° |
| 2026-04-27 22:59 | 41.17178 | 1.25072 | 3093 ft | 255 kts | 68° |
| 2026-04-27 23:00 | 41.20178 | 1.28471 | 3611 ft | 329 kts | 17° |
| 2026-04-27 23:00 | 41.22486 | 1.28685 | 4455 ft | 340 kts | 355° |
| 2026-04-27 23:00 | 41.24797 | 1.27925 | 5216 ft | 352 kts | 341° |
| 2026-04-27 23:01 | 41.27129 | 1.26746 | 6172 ft | 356 kts | 339° |
| 2026-04-27 23:01 | 41.29401 | 1.25536 | 7142 ft | 357 kts | 339° |
| 2026-04-27 23:01 | 41.31756 | 1.24294 | 8061 ft | 361 kts | 339° |
| 2026-04-27 23:01 | 41.34115 | 1.23079 | 8923 ft | 367 kts | 339° |
| 2026-04-27 23:02 | 41.36507 | 1.21872 | 9891 ft | 368 kts | 339° |
| 2026-04-27 23:02 | 41.38913 | 1.20672 | 10752 ft | 371 kts | 339° |
| 2026-04-27 23:02 | 41.41317 | 1.19480 | 11468 ft | 377 kts | 339° |
| 2026-04-27 23:02 | 41.43799 | 1.18250 | 12194 ft | 383 kts | 339° |
| 2026-04-27 23:03 | 41.46307 | 1.17007 | 12932 ft | 388 kts | 339° |
| 2026-04-27 23:03 | 41.48858 | 1.15744 | 13681 ft | 393 kts | 339° |
| 2026-04-27 23:03 | 41.51443 | 1.14487 | 14356 ft | 398 kts | 341° |
| 2026-04-27 23:03 | 41.54171 | 1.13728 | 14967 ft | 405 kts | 354° |
| 2026-04-27 23:04 | 41.57007 | 1.13798 | 15644 ft | 409 kts | 7° |
| 2026-04-27 23:04 | 41.59791 | 1.14574 | 16376 ft | 412 kts | 13° |
| 2026-04-27 23:04 | 41.62596 | 1.15515 | 16978 ft | 418 kts | 13° |
| 2026-04-27 23:04 | 41.65430 | 1.16487 | 17546 ft | 423 kts | 13° |
| 2026-04-27 23:05 | 41.67321 | 1.17133 | 17935 ft | 427 kts | 13° |
| 2026-04-27 23:05 | 41.70208 | 1.18110 | 18522 ft | 431 kts | 13° |
| 2026-04-27 23:05 | 41.73115 | 1.19079 | 19047 ft | 435 kts | 13° |
| 2026-04-27 23:05 | 41.76067 | 1.20053 | 19599 ft | 438 kts | 13° |
| 2026-04-27 23:06 | 41.79058 | 1.21035 | 20175 ft | 440 kts | 12° |
| 2026-04-27 23:06 | 41.82044 | 1.22012 | 20736 ft | 443 kts | 12° |
| 2026-04-27 23:06 | 41.85037 | 1.22991 | 21237 ft | 447 kts | 12° |
| 2026-04-27 23:06 | 41.88087 | 1.23991 | 21728 ft | 451 kts | 12° |
| 2026-04-27 23:07 | 41.91148 | 1.24995 | 22220 ft | 455 kts | 12° |
| 2026-04-27 23:07 | 41.94237 | 1.26010 | 22705 ft | 458 kts | 12° |
| 2026-04-27 23:07 | 41.97338 | 1.27030 | 23167 ft | 461 kts | 12° |
| 2026-04-27 23:07 | 42.00473 | 1.28063 | 23634 ft | 465 kts | 12° |
| 2026-04-27 23:08 | 42.03623 | 1.29101 | 24016 ft | 468 kts | 12° |
| 2026-04-27 23:08 | 42.06790 | 1.30147 | 24427 ft | 470 kts | 12° |
| 2026-04-27 23:08 | 42.09976 | 1.31200 | 24855 ft | 472 kts | 12° |
| 2026-04-27 23:08 | 42.13159 | 1.32252 | 25269 ft | 474 kts | 12° |
| 2026-04-27 23:09 | 42.16374 | 1.33313 | 25666 ft | 476 kts | 12° |
| 2026-04-27 23:09 | 42.19602 | 1.34375 | 26090 ft | 478 kts | 12° |
| 2026-04-27 23:09 | 42.22841 | 1.35441 | 26465 ft | 480 kts | 12° |
| 2026-04-27 23:09 | 42.26100 | 1.36514 | 26822 ft | 483 kts | 12° |
| 2026-04-27 23:10 | 42.29370 | 1.37592 | 27167 ft | 485 kts | 12° |
| 2026-04-27 23:10 | 42.32653 | 1.38676 | 27503 ft | 487 kts | 12° |
| 2026-04-27 23:10 | 42.35955 | 1.39769 | 27837 ft | 489 kts | 12° |
| 2026-04-27 23:10 | 42.39256 | 1.40863 | 28254 ft | 489 kts | 12° |
| 2026-04-27 23:11 | 42.42549 | 1.41956 | 28773 ft | 486 kts | 12° |
| 2026-04-27 23:11 | 42.45823 | 1.43042 | 29300 ft | 484 kts | 12° |
| 2026-04-27 23:11 | 42.49096 | 1.44133 | 29833 ft | 482 kts | 12° |
| 2026-04-27 23:11 | 42.52349 | 1.45237 | 30299 ft | 481 kts | 12° |
| 2026-04-27 23:12 | 42.55593 | 1.46347 | 30693 ft | 480 kts | 12° |
| 2026-04-27 23:12 | 42.58835 | 1.47433 | 31108 ft | 478 kts | 9° |
| 2026-04-27 23:12 | 42.62103 | 1.48043 | 31547 ft | 473 kts | 1° |
| 2026-04-27 23:12 | 42.65334 | 1.47984 | 31962 ft | 468 kts | 352° |
| 2026-04-27 23:13 | 42.68556 | 1.47471 | 32389 ft | 465 kts | 350° |
| 2026-04-27 23:13 | 42.71742 | 1.46910 | 32799 ft | 464 kts | 350° |
| 2026-04-27 23:13 | 42.74953 | 1.46337 | 33233 ft | 463 kts | 350° |
| 2026-04-27 23:13 | 42.78115 | 1.45784 | 33648 ft | 460 kts | 350° |
| 2026-04-27 23:14 | 42.81296 | 1.45244 | 34071 ft | 459 kts | 350° |
| 2026-04-27 23:14 | 42.84473 | 1.44717 | 34413 ft | 458 kts | 350° |
| 2026-04-27 23:14 | 42.87640 | 1.44199 | 34699 ft | 458 kts | 350° |
| 2026-04-27 23:14 | 42.90802 | 1.43687 | 35003 ft | 457 kts | 350° |
| 2026-04-27 23:15 | 42.93966 | 1.43175 | 35318 ft | 457 kts | 350° |
| 2026-04-27 23:15 | 42.97098 | 1.42668 | 35611 ft | 456 kts | 350° |
| 2026-04-27 23:15 | 43.00264 | 1.42155 | 35917 ft | 455 kts | 350° |
| 2026-04-27 23:15 | 43.03414 | 1.41643 | 36124 ft | 457 kts | 350° |
| 2026-04-27 23:16 | 43.09759 | 1.40608 | 36102 ft | 460 kts | 350° |
| 2026-04-27 23:16 | 43.16091 | 1.39576 | 36084 ft | 455 kts | 350° |
| 2026-04-27 23:17 | 43.22359 | 1.38551 | 36102 ft | 453 kts | 350° |
| 2026-04-27 23:17 | 43.28620 | 1.37524 | 36084 ft | 453 kts | 350° |
| 2026-04-27 23:18 | 43.34870 | 1.36497 | 36087 ft | 453 kts | 350° |
| 2026-04-27 23:18 | 43.41134 | 1.35465 | 36083 ft | 453 kts | 350° |
| 2026-04-27 23:19 | 43.47399 | 1.34431 | 36087 ft | 454 kts | 349° |
| 2026-04-27 23:19 | 43.53686 | 1.33392 | 36078 ft | 455 kts | 349° |
| 2026-04-27 23:20 | 43.59973 | 1.32350 | 36081 ft | 456 kts | 349° |
| 2026-04-27 23:20 | 43.66287 | 1.31302 | 36080 ft | 458 kts | 349° |
| 2026-04-27 23:21 | 43.72584 | 1.30002 | 36080 ft | 457 kts | 346° |
| 2026-04-27 23:21 | 43.78821 | 1.28347 | 36076 ft | 457 kts | 345° |
| 2026-04-27 23:22 | 43.85061 | 1.26661 | 36081 ft | 457 kts | 345° |
| 2026-04-27 23:22 | 43.91268 | 1.25024 | 36066 ft | 457 kts | 346° |
| 2026-04-27 23:23 | 43.97513 | 1.23400 | 36066 ft | 457 kts | 346° |
| 2026-04-27 23:23 | 44.03757 | 1.21779 | 36077 ft | 456 kts | 346° |
| 2026-04-27 23:24 | 44.09993 | 1.20156 | 36064 ft | 456 kts | 346° |
| 2026-04-27 23:24 | 44.16221 | 1.18531 | 36063 ft | 455 kts | 346° |
| 2026-04-27 23:25 | 44.22443 | 1.16904 | 36069 ft | 455 kts | 346° |
| 2026-04-27 23:25 | 44.28666 | 1.15272 | 36059 ft | 455 kts | 345° |
| 2026-04-27 23:26 | 44.34887 | 1.13638 | 36063 ft | 455 kts | 345° |
| 2026-04-27 23:26 | 44.41102 | 1.12001 | 36043 ft | 455 kts | 345° |
| 2026-04-27 23:27 | 44.47324 | 1.10360 | 36065 ft | 455 kts | 345° |
| 2026-04-27 23:27 | 44.53544 | 1.08715 | 36046 ft | 455 kts | 345° |
| 2026-04-27 23:28 | 44.59766 | 1.07066 | 36058 ft | 455 kts | 345° |
| 2026-04-27 23:28 | 44.65993 | 1.05412 | 36055 ft | 455 kts | 345° |
| 2026-04-27 23:29 | 44.72222 | 1.03755 | 36058 ft | 455 kts | 345° |
| 2026-04-27 23:29 | 44.78404 | 1.02105 | 36059 ft | 455 kts | 345° |
| 2026-04-27 23:30 | 44.84636 | 1.00439 | 36064 ft | 456 kts | 345° |
| 2026-04-27 23:30 | 44.90865 | 0.98770 | 36065 ft | 456 kts | 345° |
| 2026-04-27 23:31 | 44.97091 | 0.97099 | 36052 ft | 456 kts | 345° |
| 2026-04-27 23:31 | 45.03318 | 0.95423 | 36068 ft | 456 kts | 345° |
| 2026-04-27 23:32 | 45.09549 | 0.93743 | 36076 ft | 456 kts | 345° |
| 2026-04-27 23:32 | 45.15779 | 0.92059 | 36073 ft | 456 kts | 345° |
| 2026-04-27 23:33 | 45.22003 | 0.90373 | 36090 ft | 455 kts | 345° |
| 2026-04-27 23:33 | 45.28221 | 0.88685 | 36074 ft | 455 kts | 345° |
| 2026-04-27 23:34 | 45.34425 | 0.86997 | 36074 ft | 454 kts | 345° |
| 2026-04-27 23:34 | 45.40624 | 0.85306 | 36081 ft | 453 kts | 344° |
| 2026-04-27 23:35 | 45.46823 | 0.83611 | 36074 ft | 454 kts | 344° |
| 2026-04-27 23:35 | 45.53021 | 0.81913 | 36072 ft | 453 kts | 344° |
| 2026-04-27 23:36 | 45.59220 | 0.80211 | 36089 ft | 454 kts | 344° |
| 2026-04-27 23:36 | 45.65384 | 0.78515 | 36093 ft | 454 kts | 344° |
| 2026-04-27 23:37 | 45.71636 | 0.76790 | 36088 ft | 455 kts | 344° |
| 2026-04-27 23:37 | 45.77815 | 0.75082 | 36102 ft | 455 kts | 344° |
| 2026-04-27 23:38 | 45.84038 | 0.73359 | 36078 ft | 456 kts | 344° |
| 2026-04-27 23:38 | 45.90268 | 0.71629 | 36097 ft | 455 kts | 344° |
| 2026-04-27 23:39 | 45.96489 | 0.69897 | 36094 ft | 455 kts | 344° |
| 2026-04-27 23:39 | 46.02704 | 0.68164 | 36108 ft | 456 kts | 343° |
| 2026-04-27 23:40 | 46.08933 | 0.66422 | 36100 ft | 455 kts | 343° |
| 2026-04-27 23:40 | 46.15146 | 0.64681 | 36107 ft | 454 kts | 343° |
| 2026-04-27 23:41 | 46.21314 | 0.62948 | 36110 ft | 455 kts | 343° |
| 2026-04-27 23:41 | 46.27533 | 0.61197 | 36111 ft | 454 kts | 343° |
| 2026-04-27 23:42 | 46.33759 | 0.59440 | 36116 ft | 454 kts | 343° |
| 2026-04-27 23:42 | 46.39971 | 0.57683 | 36123 ft | 454 kts | 343° |
| 2026-04-27 23:43 | 46.46169 | 0.55925 | 36108 ft | 454 kts | 343° |
| 2026-04-27 23:43 | 46.52365 | 0.54167 | 36107 ft | 454 kts | 344° |
| 2026-04-27 23:44 | 46.58744 | 0.53874 | 36125 ft | 468 kts | 2° |
| 2026-04-27 23:44 | 46.65171 | 0.55844 | 36111 ft | 474 kts | 9° |
| 2026-04-27 23:45 | 46.71503 | 0.58374 | 36113 ft | 475 kts | 10° |
| 2026-04-27 23:45 | 46.77868 | 0.60923 | 36113 ft | 474 kts | 9° |
| 2026-04-27 23:46 | 46.84245 | 0.63401 | 36114 ft | 474 kts | 9° |
| 2026-04-27 23:46 | 46.90621 | 0.65858 | 36114 ft | 475 kts | 9° |
| 2026-04-27 23:47 | 46.97020 | 0.68333 | 36126 ft | 475 kts | 9° |
| 2026-04-27 23:47 | 47.03415 | 0.70814 | 36120 ft | 476 kts | 9° |
| 2026-04-27 23:48 | 47.09832 | 0.73300 | 36124 ft | 478 kts | 9° |
| 2026-04-27 23:48 | 47.16272 | 0.75788 | 36125 ft | 479 kts | 9° |
| 2026-04-27 23:49 | 47.22727 | 0.78290 | 36132 ft | 481 kts | 9° |
| 2026-04-27 23:49 | 47.29205 | 0.80809 | 36129 ft | 482 kts | 9° |
| 2026-04-27 23:50 | 47.35690 | 0.83339 | 36128 ft | 482 kts | 9° |
| 2026-04-27 23:50 | 47.42162 | 0.85869 | 36143 ft | 482 kts | 9° |
| 2026-04-27 23:51 | 47.48638 | 0.88407 | 36115 ft | 480 kts | 9° |
| 2026-04-27 23:51 | 47.55089 | 0.90942 | 36133 ft | 479 kts | 9° |
| 2026-04-27 23:52 | 47.61528 | 0.93478 | 36136 ft | 478 kts | 9° |
| 2026-04-27 23:52 | 47.67947 | 0.96013 | 36127 ft | 477 kts | 9° |
| 2026-04-27 23:53 | 47.74316 | 0.98534 | 36131 ft | 476 kts | 9° |
| 2026-04-27 23:53 | 47.80714 | 1.01073 | 36163 ft | 475 kts | 9° |
| 2026-04-27 23:54 | 47.87105 | 1.03616 | 36138 ft | 474 kts | 9° |
| 2026-04-27 23:54 | 47.92400 | 1.05728 | 36137 ft | 474 kts | 9° |
| 2026-04-27 23:55 | 47.98772 | 1.08276 | 36133 ft | 473 kts | 9° |
| 2026-04-27 23:55 | 48.05115 | 1.10817 | 36147 ft | 472 kts | 9° |
| 2026-04-27 23:56 | 48.11465 | 1.13369 | 36145 ft | 471 kts | 9° |
| 2026-04-27 23:56 | 48.17788 | 1.15917 | 36142 ft | 471 kts | 9° |
| 2026-04-27 23:57 | 48.24117 | 1.18472 | 36165 ft | 470 kts | 10° |
| 2026-04-27 23:57 | 48.30426 | 1.21027 | 36148 ft | 469 kts | 10° |
| 2026-04-27 23:58 | 48.36726 | 1.23585 | 36146 ft | 468 kts | 10° |
| 2026-04-27 23:58 | 48.43014 | 1.26144 | 36150 ft | 468 kts | 10° |
| 2026-04-27 23:59 | 48.49301 | 1.28710 | 36160 ft | 467 kts | 11° |
| 2026-04-27 23:59 | 48.55568 | 1.31273 | 36155 ft | 467 kts | 10° |
| 2026-04-28 00:00 | 48.61796 | 1.33827 | 36165 ft | 466 kts | 10° |
| 2026-04-28 00:00 | 48.68056 | 1.36401 | 36177 ft | 466 kts | 11° |
| 2026-04-28 00:01 | 48.74322 | 1.38984 | 36166 ft | 466 kts | 11° |
| 2026-04-28 00:01 | 48.80583 | 1.41572 | 36160 ft | 467 kts | 11° |
| 2026-04-28 00:02 | 48.86844 | 1.44167 | 36161 ft | 466 kts | 11° |
| 2026-04-28 00:02 | 48.93103 | 1.46786 | 36163 ft | 468 kts | 13° |
| 2026-04-28 00:03 | 48.96129 | 1.48680 | 36157 ft | 474 kts | 24° |
| 2026-04-28 00:03 | 48.98918 | 1.51403 | 36167 ft | 479 kts | 34° |
| 2026-04-28 00:03 | 49.03623 | 1.58666 | 36172 ft | 485 kts | 46° |
| 2026-04-28 00:04 | 49.10271 | 1.70380 | 36180 ft | 486 kts | 46° |
| 2026-04-28 00:05 | 49.14744 | 1.78133 | 36174 ft | 486 kts | 45° |
| 2026-04-28 00:05 | 49.19232 | 1.85863 | 36170 ft | 486 kts | 45° |
| 2026-04-28 00:06 | 49.23716 | 1.93608 | 36169 ft | 486 kts | 45° |
| 2026-04-28 00:06 | 49.28200 | 2.01382 | 36158 ft | 487 kts | 45° |
| 2026-04-28 00:07 | 49.32676 | 2.09169 | 36166 ft | 487 kts | 45° |
| 2026-04-28 00:07 | 49.37115 | 2.16914 | 36157 ft | 486 kts | 46° |
| 2026-04-28 00:08 | 49.41575 | 2.24720 | 36158 ft | 486 kts | 46° |
| 2026-04-28 00:08 | 49.46032 | 2.32547 | 36158 ft | 487 kts | 46° |
| 2026-04-28 00:09 | 49.50486 | 2.40390 | 36189 ft | 487 kts | 46° |
| 2026-04-28 00:09 | 49.55014 | 2.48116 | 36155 ft | 485 kts | 39° |
| 2026-04-28 00:10 | 49.60429 | 2.54124 | 36173 ft | 478 kts | 28° |
| 2026-04-28 00:10 | 49.66101 | 2.59474 | 36163 ft | 478 kts | 28° |
| 2026-04-28 00:11 | 49.71760 | 2.64872 | 36188 ft | 478 kts | 28° |
| 2026-04-28 00:11 | 49.77394 | 2.70344 | 36171 ft | 478 kts | 28° |
| 2026-04-28 00:12 | 49.83015 | 2.75845 | 36168 ft | 478 kts | 28° |
| 2026-04-28 00:12 | 49.88644 | 2.81370 | 36171 ft | 478 kts | 28° |
| 2026-04-28 00:13 | 49.94262 | 2.86895 | 36192 ft | 478 kts | 28° |
| 2026-04-28 00:13 | 49.99885 | 2.92440 | 36168 ft | 477 kts | 28° |
| 2026-04-28 00:13 | 50.02641 | 2.95168 | 36154 ft | 462 kts | 28° |
| 2026-04-28 00:14 | 50.05305 | 2.97811 | 36089 ft | 448 kts | 28° |
| 2026-04-28 00:14 | 50.07915 | 3.00399 | 35773 ft | 441 kts | 28° |
| 2026-04-28 00:14 | 50.10488 | 3.02949 | 35414 ft | 437 kts | 28° |
| 2026-04-28 00:14 | 50.13042 | 3.05482 | 35033 ft | 434 kts | 28° |
| 2026-04-28 00:15 | 50.15580 | 3.08002 | 34673 ft | 432 kts | 27° |
| 2026-04-28 00:15 | 50.18078 | 3.10487 | 34262 ft | 431 kts | 27° |
| 2026-04-28 00:15 | 50.20602 | 3.13002 | 33811 ft | 430 kts | 27° |
| 2026-04-28 00:15 | 50.23123 | 3.15460 | 33376 ft | 425 kts | 24° |
| 2026-04-28 00:16 | 50.25772 | 3.17505 | 32793 ft | 423 kts | 18° |
| 2026-04-28 00:16 | 50.28461 | 3.19321 | 32401 ft | 420 kts | 18° |
| 2026-04-28 00:16 | 50.31161 | 3.21108 | 31935 ft | 418 kts | 18° |
| 2026-04-28 00:17 | 50.36493 | 3.24747 | 31994 ft | 427 kts | 19° |
| 2026-04-28 00:17 | 50.39241 | 3.26667 | 32023 ft | 439 kts | 19° |
| 2026-04-28 00:17 | 50.42054 | 3.28692 | 31942 ft | 452 kts | 21° |
| 2026-04-28 00:17 | 50.44926 | 3.30945 | 31682 ft | 469 kts | 23° |
| 2026-04-28 00:18 | 50.47876 | 3.33315 | 31457 ft | 483 kts | 23° |
| 2026-04-28 00:18 | 50.50914 | 3.35732 | 31220 ft | 496 kts | 23° |
| 2026-04-28 00:18 | 50.54062 | 3.38097 | 30980 ft | 505 kts | 21° |
| 2026-04-28 00:18 | 50.57277 | 3.40328 | 30730 ft | 506 kts | 20° |
| 2026-04-28 00:19 | 50.60513 | 3.42501 | 30507 ft | 505 kts | 20° |
| 2026-04-28 00:19 | 50.63744 | 3.44662 | 30261 ft | 504 kts | 20° |
| 2026-04-28 00:19 | 50.66960 | 3.46834 | 29976 ft | 503 kts | 20° |
| 2026-04-28 00:19 | 50.70173 | 3.49030 | 29685 ft | 503 kts | 20° |
| 2026-04-28 00:20 | 50.73379 | 3.51241 | 29406 ft | 502 kts | 20° |
| 2026-04-28 00:20 | 50.76575 | 3.53457 | 29121 ft | 501 kts | 21° |
| 2026-04-28 00:20 | 50.79757 | 3.55668 | 28345 ft | 500 kts | 20° |
| 2026-04-28 00:20 | 50.82950 | 3.57885 | 27340 ft | 501 kts | 20° |
| 2026-04-28 00:21 | 50.86122 | 3.60092 | 26615 ft | 494 kts | 20° |
| 2026-04-28 00:21 | 50.89266 | 3.62174 | 25889 ft | 486 kts | 15° |
| 2026-04-28 00:21 | 50.92486 | 3.63578 | 25187 ft | 476 kts | 7° |
| 2026-04-28 00:21 | 50.95729 | 3.64201 | 24486 ft | 465 kts | 358° |
| 2026-04-28 00:22 | 50.98940 | 3.64357 | 23794 ft | 460 kts | 356° |
| 2026-04-28 00:22 | 51.02125 | 3.64487 | 22980 ft | 455 kts | 357° |
| 2026-04-28 00:22 | 51.05272 | 3.64636 | 22252 ft | 449 kts | 358° |
| 2026-04-28 00:22 | 51.08376 | 3.64811 | 21560 ft | 444 kts | 358° |
| 2026-04-28 00:23 | 51.11436 | 3.65004 | 20877 ft | 438 kts | 359° |
| 2026-04-28 00:23 | 51.14469 | 3.65203 | 20198 ft | 433 kts | 359° |
| 2026-04-28 00:23 | 51.17465 | 3.65400 | 19519 ft | 428 kts | 359° |
| 2026-04-28 00:23 | 51.20429 | 3.65659 | 18880 ft | 425 kts | 4° |
| 2026-04-28 00:24 | 51.23312 | 3.66673 | 18190 ft | 425 kts | 17° |
| 2026-04-28 00:24 | 51.25987 | 3.68536 | 17877 ft | 414 kts | 27° |
| 2026-04-28 00:24 | 51.28381 | 3.71061 | 17588 ft | 414 kts | 35° |
| 2026-04-28 00:24 | 51.30710 | 3.73816 | 17273 ft | 418 kts | 36° |
| 2026-04-28 00:25 | 51.33052 | 3.76580 | 16968 ft | 418 kts | 35° |
| 2026-04-28 00:25 | 51.35391 | 3.79296 | 16663 ft | 414 kts | 34° |
| 2026-04-28 00:25 | 51.37724 | 3.81980 | 16377 ft | 412 kts | 34° |
| 2026-04-28 00:25 | 51.39952 | 3.84842 | 16062 ft | 411 kts | 45° |
| 2026-04-28 00:26 | 51.41662 | 3.88495 | 15784 ft | 410 kts | 61° |
| 2026-04-28 00:26 | 51.42746 | 3.92686 | 15504 ft | 407 kts | 76° |
| 2026-04-28 00:26 | 51.43396 | 3.97087 | 15223 ft | 406 kts | 78° |
| 2026-04-28 00:26 | 51.44025 | 4.01504 | 14941 ft | 406 kts | 78° |
| 2026-04-28 00:27 | 51.44656 | 4.05894 | 14651 ft | 405 kts | 77° |
| 2026-04-28 00:27 | 51.45299 | 4.10292 | 14367 ft | 403 kts | 77° |
| 2026-04-28 00:27 | 51.45943 | 4.14650 | 14080 ft | 401 kts | 77° |
| 2026-04-28 00:27 | 51.46590 | 4.18992 | 13769 ft | 398 kts | 77° |
| 2026-04-28 00:28 | 51.47232 | 4.23295 | 13463 ft | 394 kts | 77° |
| 2026-04-28 00:28 | 51.47866 | 4.27549 | 13173 ft | 391 kts | 77° |
| 2026-04-28 00:28 | 51.48493 | 4.31767 | 12895 ft | 387 kts | 77° |
| 2026-04-28 00:28 | 51.49112 | 4.35947 | 12620 ft | 385 kts | 77° |
| 2026-04-28 00:29 | 51.49717 | 4.40042 | 12357 ft | 382 kts | 77° |
| 2026-04-28 00:29 | 51.50337 | 4.44251 | 12077 ft | 379 kts | 78° |
| 2026-04-28 00:29 | 51.50940 | 4.48356 | 11811 ft | 378 kts | 78° |
| 2026-04-28 00:29 | 51.51623 | 4.52425 | 11537 ft | 377 kts | 71° |
| 2026-04-28 00:30 | 51.52719 | 4.56240 | 11275 ft | 377 kts | 60° |
| 2026-04-28 00:30 | 51.54195 | 4.59724 | 11021 ft | 376 kts | 54° |
| 2026-04-28 00:30 | 51.55737 | 4.63107 | 10752 ft | 376 kts | 54° |
| 2026-04-28 00:30 | 51.57285 | 4.66503 | 10486 ft | 376 kts | 54° |
| 2026-04-28 00:31 | 51.58817 | 4.69894 | 10236 ft | 374 kts | 55° |
| 2026-04-28 00:31 | 51.60339 | 4.73291 | 9951 ft | 373 kts | 55° |
| 2026-04-28 00:31 | 51.61829 | 4.76641 | 9671 ft | 371 kts | 55° |
| 2026-04-28 00:31 | 51.63298 | 4.79955 | 9397 ft | 368 kts | 55° |
| 2026-04-28 00:32 | 51.64800 | 4.83349 | 9124 ft | 365 kts | 56° |
| 2026-04-28 00:32 | 51.66272 | 4.86679 | 8866 ft | 364 kts | 56° |
| 2026-04-28 00:32 | 51.67536 | 4.90088 | 8595 ft | 362 kts | 70° |
| 2026-04-28 00:32 | 51.67945 | 4.93983 | 8379 ft | 357 kts | 92° |
| 2026-04-28 00:33 | 51.67522 | 4.97931 | 8124 ft | 354 kts | 110° |
| 2026-04-28 00:33 | 51.66529 | 5.01538 | 7872 ft | 350 kts | 116° |
| 2026-04-28 00:33 | 51.65497 | 5.05029 | 7624 ft | 350 kts | 115° |
| 2026-04-28 00:33 | 51.64462 | 5.08587 | 7378 ft | 352 kts | 115° |
| 2026-04-28 00:34 | 51.63452 | 5.12188 | 7009 ft | 353 kts | 114° |
| 2026-04-28 00:34 | 51.62152 | 5.15517 | 6494 ft | 353 kts | 132° |
| 2026-04-28 00:34 | 51.60161 | 5.17842 | 6097 ft | 350 kts | 155° |
| 2026-04-28 00:34 | 51.57859 | 5.18771 | 5817 ft | 342 kts | 175° |
| 2026-04-28 00:35 | 51.55530 | 5.18475 | 5546 ft | 331 kts | 189° |
| 2026-04-28 00:35 | 51.53296 | 5.17805 | 5255 ft | 322 kts | 190° |
| 2026-04-28 00:35 | 51.51117 | 5.17145 | 4990 ft | 314 kts | 189° |
| 2026-04-28 00:35 | 51.48997 | 5.16520 | 4724 ft | 306 kts | 189° |
| 2026-04-28 00:36 | 51.46926 | 5.15933 | 4466 ft | 299 kts | 188° |
| 2026-04-28 00:36 | 51.44898 | 5.15368 | 4240 ft | 293 kts | 188° |
| 2026-04-28 00:36 | 51.42916 | 5.14817 | 3985 ft | 283 kts | 188° |
| 2026-04-28 00:36 | 51.41028 | 5.14293 | 3758 ft | 269 kts | 188° |
| 2026-04-28 00:37 | 51.39217 | 5.14054 | 3523 ft | 254 kts | 168° |
| 2026-04-28 00:37 | 51.37666 | 5.15089 | 3375 ft | 236 kts | 141° |
| 2026-04-28 00:37 | 51.36500 | 5.16830 | 3211 ft | 224 kts | 125° |
| 2026-04-28 00:37 | 51.35594 | 5.18777 | 3015 ft | 213 kts | 122° |
| 2026-04-28 00:38 | 51.34758 | 5.20646 | 2852 ft | 202 kts | 122° |
| 2026-04-28 00:38 | 51.33994 | 5.22446 | 2671 ft | 189 kts | 112° |
| 2026-04-28 00:38 | 51.33874 | 5.24393 | 2504 ft | 173 kts | 69° |
| 2026-04-28 00:38 | 51.34676 | 5.25775 | 2408 ft | 175 kts | 35° |
| 2026-04-28 00:39 | 51.35680 | 5.26900 | 2161 ft | 172 kts | 40° |
| 2026-04-28 00:39 | 51.36610 | 5.27993 | 1940 ft | 159 kts | 39° |
| 2026-04-28 00:39 | 51.37189 | 5.28652 | 1792 ft | 151 kts | 39° |
| 2026-04-28 00:39 | 51.38241 | 5.29836 | 1525 ft | 131 kts | 39° |
| 2026-04-28 00:40 | 51.38734 | 5.30393 | 1422 ft | 128 kts | 38° |
| 2026-04-28 00:40 | 51.39469 | 5.31220 | 1255 ft | 130 kts | 37° |
| 2026-04-28 00:40 | 51.40449 | 5.32326 | 988 ft | 129 kts | 37° |
| 2026-04-28 00:40 | 51.41179 | 5.33156 | 819 ft | 130 kts | 37° |
| 2026-04-28 00:41 | 51.41924 | 5.33987 | 651 ft | 130 kts | 36° |
| 2026-04-28 00:41 | 51.42430 | 5.34556 | 516 ft | 131 kts | 36° |
| 2026-04-28 00:41 | 51.43172 | 5.35407 | 361 ft | 130 kts | 34° |
| 2026-04-28 00:41 | 51.43906 | 5.36222 | 148 ft | 127 kts | 34° |
| 2026-04-28 00:42 | 51.44611 | 5.37005 | 75 ft | 116 kts | 34° |
| 2026-04-28 00:42 | 51.45159 | 5.37611 | 70 ft | 79 kts | 34° |
| 2026-04-28 00:42 | 51.45569 | 5.38072 | 70 ft | 66 kts | 34° |
| 2026-04-28 00:42 | 51.45870 | 5.38407 | 73 ft | 25 kts | 33° |
| 2026-04-28 00:43 | 51.45906 | 5.38517 | 73 ft | 13 kts | 116° |
| 2026-04-28 00:43 | 51.45842 | 5.38666 | 71 ft | 12 kts | 124° |
| 2026-04-28 00:43 | 51.45811 | 5.38739 | 68 ft | 7 kts | 124° |
| 2026-04-28 00:43 | 51.45808 | 5.38745 | 74 ft | 0 kts | 125° |
| 2026-04-28 00:44 | 51.45805 | 5.38751 | 74 ft | 2 kts | 125° |
| 2026-04-28 00:44 | 51.45779 | 5.38788 | 64 ft | 8 kts | 146° |
| 2026-04-28 00:44 | 51.45723 | 5.38757 | 74 ft | 10 kts | 219° |
| 2026-04-28 00:44 | 51.45671 | 5.38700 | 74 ft | 7 kts | 212° |
| 2026-04-28 00:45 | 51.45637 | 5.38733 | 74 ft | 6 kts | 127° |
| 2026-04-28 00:45 | 51.45618 | 5.38776 | 74 ft | 1 kts | 126° |
| 2026-04-28 00:45 | 51.45615 | 5.38781 | 74 ft | 0 kts | 126° |